Wenatchee, WA (98801)

2:52 AM PDT on August 29, 2014 (GMT -0700)
3rd and Elliott | Change Station
CLOSE
Current Station
Personal Weather Station
Location: Wenatchee, WA
Elevation: 787 ft
Nearby Weather Stations

Elev 787 ft 47.43 °N, 120.34 °W | Updated 3 seconds ago

Clear
Clear
67.5 °F
Feels Like 67.5 °F
N
2.2
Wind Variable Wind from SW
Gusts 2.2 mph

Today
High -- | Low -- °F
--% Chance of Precip.
Yesterday
High -- | Low -- °F
Precip. -- in
6:16 AM 7:47 PM
Waxing Crescent, 13% visible
Pressure 29.90 in
Visibility 10.0 miles
Clouds Clear
Dew Point 35 °F
Humidity 30%
Rainfall 0.00 in
Snow Depth 0 in , 0 in
UV 0 out of 12
Pollen 4.90 out of 12
Air Quality Not available.
Flu Activity Not available.
METAR KEAT 290855Z AUTO 32012KT 10SM CLR 21/09 A2993 RMK AO2 SLP125 T02060094 56005

More Conditions Fewer Conditions

Pressure 29.90 in
Visibility 10.0 miles
Clouds Clear
Dew Point 35 °F
Humidity 30%
Rainfall 0.00 in
Snow Depth 0 in , 0 in
UV 0 out of 12
Pollen 4.90 out of 12
Air Quality Not available.
Flu Activity Not available.
METAR KEAT 290855Z AUTO 32012KT 10SM CLR 21/09 A2993 RMK AO2 SLP125 T02060094 56005

More Conditions Fewer Conditions

10-Day Weather Forecast

Almanac

Astronomy

Aug. 29, 2014 Rise Set
Actual Time 6:16 AM PDT 7:47 PM PDT
Civil Twilight 5:44 AM PDT 8:19 PM PDT
Nautical Twilight 5:05 AM PDT 8:57 PM PDT
Astronomical Twilight 4:22 AM PDT 9:39 PM PDT
Moon 10:29 AM PDT 9:27 PM PDT
Length of Visible Light 14h 34m
Length of Day
13h 30m
Tomorrow will be 3m 16s shorter.
Waxing Crescent, 13% of the Moon is Illuminated
Today
Waxing Crescent
Sep 2
First Quarter
Sep 8
Full
Sep 15
Last Quarter
Sep 24
New

Today's Extremes

State Highs State Lows

Community

WunderPhotos

Upload Photos

1,748,207 photos uploaded!

Nearby

Snow Depth

Station Depth Elevation
Upper Wheeler 0 in 4400 ft
Grouse Camp 0 in 5380 ft
Trough 0 in 5300 ft
Blewett Pass 0 in 4270 ft
Sasse Ridge 0 in 4200 ft

Earthquake Activity

City Distance Mag. Time & Date
No recent earthquake activity has been reported nearby.
Minimum magnitude displayed is 2.5.

Coastal Water Temperatures

Place Temperature
No Stations Reporting

Nearby Weather Stations